Terminal Aerodrome Forecast
Issued by NWS Mt. Holly, NJ

Home | Current Version | Previous Version | Text Only | Print | Product List | Glossary On
Versions: 1 2 3 4 5 6 7 8 9 10 11 12 13 14 15 16 17 18 19 20 21 22 23 24 25 26 27 28 29 30 31 32 33 34 35
000
FTAK31 PANC 020545
TAFABE
TAF
PABE 020545Z 0206/0306 05008KT P6SM SCT200
     FM021200 05012KT P6SM SCT050 OVC080
     FM021800 04010KT P6SM VCSH SCT025 OVC050
      TEMPO 0218/0222 -FZRA
     FM030300 04008KT 6SM -RA SCT025 OVC035=

USA.gov is the U.S. government's official web portal to all federal, state and local government web resources and services.